1961 Tropical Cyclone NOT_NAMED (1961061S11137)


IBTrACS version v04r00. Visit IBTrACS website for data access.
Please direct all questions to the IBTrACS Q and A forum

Storm track - Intensity - Wind Radii - Intensity Data - Source Data - All data

Summary Information

Storm ID 1961061S11137
Start Mar 2 02Z
Landfall Mar 2 20Z
Max Intensity 50 kt (Mar 2 18Z), 988 mb (Mar 2 17Z)
End Mar 8 18Z
ATCF IDs ,SH231961
Track status Best track data.

Storm track plot

Map of storm track

Intensity plots

Map of storm track

Radial wind information

No radial wind information for this storm


Position and Intensity Table

BASIN ISO_TIME_________ NATURE LAT LON WMO PRES BOM PRES NEUMANN WIND NEUMANN PRES
degrees north degrees east mb mb kts mb
SP 1961-03-02 02:30:00 NR -11.00 136.50 995 995
SP 03:00:00 NR -11.02 136.58 994
SP 06:00:00 TS -11.17 137.16 993 40 994
SP 09:00:00 TS -11.39 137.87 992 42 993
SP 11:00:00 TS -11.51 138.34 992 44 992
SP 11:30:00 TS -11.51 138.44 992 992 44 992
SP 12:00:00 TS -11.47 138.49 991 45 992
SP 15:00:00 TS -11.92 139.80 989 47 990
SP 17:00:00 TS -12.24 140.68 988 988 49 988
SP 18:00:00 TS -12.38 141.07 988 50 988
SP 20:00:00 TS -12.66 141.79 988 988 50 988
SP 21:00:00 TS -12.79 142.12 988 50 989
SP 23:00:00 TS -13.12 142.82 990 990 50 989
SP 1961-03-03 00:00:00 TS -13.34 143.22 990 50 990
SP 00:30:00 TS -13.46 143.43 991 991 49 990
SP 03:00:00 TS -14.05 144.37 990 47 990
SP 06:00:00 TS -14.74 145.35 990 45 990
SP 09:00:00 TS -15.36 146.20 990 45 990
SP 11:00:00 TS -15.75 146.73 990 990 45 990
SP 12:00:00 TS -15.95 147.01 990 45 990
SP 15:00:00 TS -16.49 147.78 990 45 990
SP 18:00:00 TS -17.00 148.50 991 45 991
SP 21:00:00 TS -17.50 149.21 991 45 991
SP 23:00:00 TS -17.84 149.68 992 992 45 991
SP 1961-03-04 00:00:00 TS -18.02 149.89 992 45 992
SP 03:00:00 TS -18.59 150.53 992 42 992
SP 06:00:00 TS -19.06 151.20 993 40 993
SP 08:00:00 TS -19.27 151.75 994 994 38 994
SP 09:00:00 TS -19.33 152.06 994 37 994
SP 11:00:00 TS -19.39 152.66 996 996 35 995
SP 12:00:00 TS -19.37 152.92 996 35 996
SP 15:00:00 TS -19.16 153.52 996 35 996
SP 18:00:00 TS -18.82 153.98 996 35 996
SP 21:00:00 TS -18.48 154.39 996 35 996
SP 23:00:00 TS -18.27 154.68 996 996 35 996
SP 1961-03-05 00:00:00 TS -18.19 154.84 995 35 996
SP 03:00:00 TS -18.02 155.40 995 37 995
SP 06:00:00 TS -17.88 155.97 994 40 995
SP 09:00:00 TS -17.76 156.54 994 40 994
SP 11:00:00 TS -17.68 156.91 994 994 40 994
SP 12:00:00 TS -17.64 157.10 994 40 994
SP 15:00:00 TS -17.51 157.64 994 40 994
SP 18:00:00 TS -17.40 158.18 994 40 994
SP 21:00:00 TS -17.29 158.72 994 40 994
SP 23:00:00 TS -17.21 159.06 994 994 40 994
SP 1961-03-06 00:00:00 TS -17.17 159.22 40 994
SP 03:00:00 TS -17.06 159.67 40 994
SP 06:00:00 TS -16.93 160.06 40 994
SP 09:00:00 TS -16.78 160.44 40 994
SP 11:00:00 TS -16.64 160.67 40 994
SP 12:00:00 TS -16.57 160.77 40 994
SP 15:00:00 TS -16.30 161.07 40 994
SP 16:00:00 TS -16.19 161.15 994 994 40 994
SP 18:00:00 TS -15.97 161.27 994 40 994
SP 21:00:00 TS -15.62 161.32 994 40 994
SP 23:00:00 TS -15.38 161.27 994 994 40 994
SP 1961-03-07 00:00:00 TS -15.26 161.22 40 994
SP 03:00:00 TS -14.90 160.96 40 994
SP 06:00:00 TS -14.53 160.61 40 994
SP 09:00:00 TS -14.19 160.24 40 994
SP 11:00:00 TS -13.96 159.99 40 994
SP 12:00:00 TS -13.84 159.87 40 995
SP 15:00:00 TS -13.42 159.51 37 995
SP 17:00:00 TS -13.13 159.31 996 996 35 995
SP 18:00:00 TS -12.97 159.22 996 35 996
SP 21:00:00 TS -12.56 159.20 996 35 996
SP 23:00:00 TS -12.34 159.32 996 996 35 996
SP 1961-03-08 00:00:00 TS -12.28 159.44 996 35 996
SP 03:00:00 TS -12.25 159.71 996 35 996
SP 06:00:00 TS -12.38 159.95 996 35 996
SP 08:00:00 TS -12.50 160.04 997 997 35 996
SP 09:00:00 TS -12.57 160.06 997 35 996
SP 12:00:00 TS -12.81 160.05 997 35 997
SP 15:00:00 TS -13.07 159.94 998 32 998
SP 17:00:00 TS -13.24 159.86 999 999 30 998
SP 18:00:00 TS -13.30 159.90 30 999

Source Information

Agency Information
USA bsh231961.txt
TOKYO
CMA
HKO
NEWDELHI
REUNION
BOM IDCKMSTM0S.csv:Line=3281:unnamed
NADI
WELLINGTON
DS824 s_hem.dat:822:23P
TD9636 cons_worldwide_trop_cyclone_18710101-19891231-006:Line=5968
TD9635
NEUMANN tracks.sh:Storm=18:HSK1861:BSH2361:BM301
MLC

All available IBTrACS Data

SEASON BASIN SUBBASIN ISO_TIME_________ NATURE LAT LON WMO PRES WMO AGENCY DIST2LAND LANDFALL IFLAG USA AGENCY USA ATCF_ID USA LAT USA LON USA SSHS BOM LAT BOM LON BOM PRES BOM PRES_METHOD DS824 LAT DS824 LON DS824 STAGE TD9636 LAT TD9636 LON TD9636 STAGE NEUMANN LAT NEUMANN LON NEUMANN CLASS NEUMANN WIND NEUMANN PRES STORM SPEED STORM DIR
Year degrees north degrees east mb km km degrees north degrees east 1 degrees north degrees east mb degrees north degrees east degrees north degrees east degrees north degrees east kts mb kts degrees
1961 SP EA 1961-03-02 02:30:00 NR -11.00 136.50 995 bom 111 111 ______O_______ -1 -11.00 136.50 995 10 104
1961 SP EA 03:00:00 NR -11.02 136.58 112 103 ______P_______ -1 -11.02 136.58 994 12 104
1961 SP EA 06:00:00 TS -11.17 137.16 117 117 ______P_____O_ -1 -11.16 137.12 993 -11.20 137.30 TC 40 994 13 106
1961 SP EA 09:00:00 TS -11.39 137.87 140 140 ______P_____P_ -1 -11.38 137.84 992 -11.40 137.94 TC 42 993 14 106
1961 SP EA 11:00:00 TS -11.51 138.34 167 176 ______P___O_P_ -1 -11.63 138.50 992 -10.80 137.30 1 -11.58 138.47 TC 44 992 14 103
1961 SP EA 11:30:00 TS -11.51 138.44 992 bom 176 176 ______O___P_P_ -1 -11.70 138.70 992 -10.89 137.56 1 -11.64 138.63 TC 44 992 9 76
1961 SP EA 12:00:00 TS -11.47 138.49 186 186 O_____P__OP_O_ jtwc_sh SH231961 -11.00 137.90 -1 -11.78 138.91 991 -11.00 137.90 TC -10.99 137.82 1 -11.70 138.80 TC 45 992 24 107
1961 SP EA 15:00:00 TS -11.92 139.80 209 107 P_____P__PP_P_ SH231961 -11.55 139.52 -1 -12.31 140.26 989 -11.55 139.52 TC -11.54 139.36 1 -12.15 140.00 TC 47 990 27 110
1961 SP EA 17:00:00 TS -12.24 140.68 988 bom 107 58 P_____O__PP_P_ SH231961 -11.92 140.53 -1 -12.60 141.00 988 4 -11.92 140.53 TC -11.90 140.35 1 -12.46 140.83 TC 49 988 27 110
1961 SP EA 18:00:00 TS -12.38 141.07 58 0 O_____P__OP_O_ jtwc_sh SH231961 -12.10 141.00 -1 -12.68 141.22 988 -12.10 141.00 TC -12.08 140.83 1 -12.60 141.20 TC 50 988 23 111
1961 SP EA 20:00:00 TS -12.66 141.79 988 bom 0 0 P_____O__PP_P_ SH231961 -12.47 141.84 -1 -12.80 141.60 988 -12.47 141.84 TC -12.45 141.72 1 -12.73 141.70 TC 50 988 22 112
1961 SP EA 21:00:00 TS -12.79 142.12 0 0 P_____P__PP_P_ SH231961 -12.65 142.22 -1 -12.81 141.77 988 -12.65 142.22 TC -12.63 142.14 1 -12.78 141.92 TC 50 989 22 115
1961 SP EA 23:00:00 TS -13.12 142.82 990 bom 0 0 P_____O__PO_P_ SH231961 -13.02 142.90 -1 -13.10 142.50 990 -13.02 142.90 TC -13.00 142.90 2 -12.95 142.40 TC 50 989 24 117
1961 SP EA 1961-03-03 00:00:00 TS -13.34 143.22 0 0 O_____P__OP_O_ jtwc_sh SH231961 -13.20 143.20 -1 -13.55 143.28 990 -13.20 143.20 TC -13.19 143.24 2 -13.10 142.70 TC 50 990 28 120
1961 SP EA 00:30:00 TS -13.46 143.43 991 bom 0 0 P_____O__PP_P_ SH231961 -13.29 143.35 -1 -13.80 143.70 991 -13.29 143.35 TC -13.28 143.40 2 -13.21 142.90 TC 49 990 27 122
1961 SP EA 03:00:00 TS -14.05 144.37 22 11 P_____P__PP_P_ SH231961 -13.74 144.00 -1 -14.72 145.24 990 -13.74 144.00 TC -13.75 144.12 2 -13.93 144.05 TC 47 990 25 124
1961 SP EA 06:00:00 TS -14.74 145.35 24 24 O_____P__OP_O_ jtwc_sh SH231961 -14.30 144.70 -1 -15.49 146.42 990 -14.30 144.70 TC -14.32 144.85 2 -14.90 145.50 TC 45 990 22 126
1961 SP EA 09:00:00 TS -15.36 146.20 86 86 P_____P__PP_P_ SH231961 -14.89 145.49 -1 -16.01 147.13 990 -14.89 145.49 TC -14.91 145.53 2 -15.67 146.72 TC 45 990 20 127
1961 SP EA 11:00:00 TS -15.75 146.73 990 bom 132 143 P_____O__PO_P_ SH231961 -15.30 146.03 -1 -16.30 147.50 990 -15.30 146.03 TC -15.30 146.00 1 -16.11 147.41 TC 45 990 20 127
1961 SP EA 12:00:00 TS -15.95 147.01 161 170 O_____P__OP_O_ jtwc_sh SH231961 -15.50 146.30 -1 -16.47 147.77 990 -15.50 146.30 TC -15.51 146.29 1 -16.30 147.70 TC 45 990 19 126
1961 SP EA 15:00:00 TS -16.49 147.78 207 207 P_____P__PP_P_ SH231961 -16.10 147.15 -1 -16.92 148.48 990 -16.10 147.15 TC -16.14 147.16 1 -16.74 148.37 TC 45 990 18 126
1961 SP EA 18:00:00 TS -17.00 148.50 258 258 O_____P__OP_O_ jtwc_sh SH231961 -16.70 148.00 -1 -17.31 149.07 991 -16.70 148.00 TC -16.77 148.04 1 -17.10 148.90 TC 45 991 17 127
1961 SP EA 21:00:00 TS -17.50 149.21 285 281 P_____P__PP_P_ SH231961 -17.31 148.84 -1 -17.71 149.62 991 -17.31 148.84 TC -17.35 148.88 1 -17.53 149.54 TC 45 991 17 127
1961 SP EA 23:00:00 TS -17.84 149.68 992 bom 286 273 P_____O__PO_P_ SH231961 -17.71 149.36 -1 -18.00 150.00 992 -17.71 149.36 TC -17.70 149.40 1 -17.84 149.98 TC 45 991 17 128
1961 SP EA 1961-03-04 00:00:00 TS -18.02 149.89 279 260 O_____P__OP_O_ jtwc_sh SH231961 -17.90 149.60 -1 -18.23 150.14 992 -17.90 149.60 TC -17.88 149.63 1 -18.00 150.20 TC 45 992 17 133
1961 SP EA 03:00:00 TS -18.59 150.53 260 260 P_____P__PP_P_ SH231961 -18.47 150.23 -1 -18.95 150.57 992 -18.47 150.23 TC -18.40 150.26 1 -18.58 150.78 TC 42 992 16 130
1961 SP EA 06:00:00 TS -19.06 151.20 284 284 O_____P__OP_O_ jtwc_sh SH231961 -18.90 150.80 -1 -19.52 151.25 993 -18.90 150.80 TC -18.82 150.83 1 -19.10 151.50 TC 40 993 16 120
1961 SP EA 08:00:00 TS -19.27 151.75 994 bom 331 331 P_____O__PP_P_ SH231961 -19.10 151.18 -1 -19.70 152.00 994 -19.10 151.18 TC -19.03 151.21 1 -19.38 152.28 TC 38 994 17 109
1961 SP EA 09:00:00 TS -19.33 152.06 360 360 P_____P__PP_P_ SH231961 -19.16 151.38 -1 -19.70 152.53 994 -19.16 151.38 TC -19.11 151.40 1 -19.49 152.71 TC 37 994 17 98
1961 SP EA 11:00:00 TS -19.39 152.66 996 bom 394 394 P_____O__PO_P_ SH231961 -19.21 151.78 -1 -19.60 153.60 996 -19.21 151.78 TC -19.20 151.80 2 -19.60 153.49 TC 35 995 16 93
1961 SP EA 12:00:00 TS -19.37 152.92 405 411 O_____P__OP_O_ jtwc_sh SH231961 -19.20 152.00 -1 -19.53 153.98 996 -19.20 152.00 TC -19.20 152.03 2 -19.60 153.80 TC 35 996 13 75
1961 SP EA 15:00:00 TS -19.16 153.52 461 476 P_____P__PP_P_ SH231961 -19.01 152.74 -1 -19.22 154.62 996 -19.01 152.74 TC -19.08 152.73 2 -19.34 154.18 TC 35 996 11 61
1961 SP EA 18:00:00 TS -18.82 153.98 529 529 O_____P__OP_O_ jtwc_sh SH231961 -18.70 153.50 -1 -18.83 154.75 996 -18.70 153.50 TC -18.82 153.45 2 -18.90 154.30 TC 35 996 11 50
1961 SP EA 21:00:00 TS -18.48 154.39 581 581 P_____P__PP_P_ SH231961 -18.43 154.17 -1 -18.43 154.69 996 -18.43 154.17 TC -18.50 154.15 2 -18.52 154.55 TC 35 996 10 50
1961 SP EA 23:00:00 TS -18.27 154.68 996 bom 619 619 P_____O__PO_P_ SH231961 -18.27 154.59 -1 -18.20 154.70 996 -18.27 154.59 TC -18.30 154.60 1 -18.29 154.77 TC 35 996 10 56
1961 SP EA 1961-03-05 00:00:00 TS -18.19 154.84 635 642 O_____P__OP_O_ jtwc_sh SH231961 -18.20 154.80 -1 -18.13 154.85 995 -18.20 154.80 TC -18.23 154.81 1 -18.20 154.90 TC 35 996 11 69
1961 SP EA 03:00:00 TS -18.02 155.40 694 694 P_____P__PP_P_ SH231961 -18.03 155.41 -1 -17.96 155.34 995 -18.03 155.41 TC -18.03 155.42 1 -18.01 155.41 TC 37 995 11 74
1961 SP EA 06:00:00 TS -17.88 155.97 747 747 O_____P__OP_O_ jtwc_sh SH231961 -17.90 156.00 -1 -17.85 155.90 994 -17.90 156.00 TC -17.85 156.00 1 -17.90 156.00 TC 40 995 11 77
1961 SP EA 09:00:00 TS -17.76 156.54 793 801 P_____P__PP_P_ SH231961 -17.74 156.56 -1 -17.76 156.50 994 -17.74 156.56 TC -17.69 156.55 1 -17.80 156.55 TC 40 994 11 77
1961 SP EA 11:00:00 TS -17.68 156.91 994 bom 801 785 P_____O__PO_P_ SH231961 -17.64 156.93 -1 -17.70 156.90 994 -17.64 156.93 TC -17.60 156.90 1 -17.74 156.92 TC 40 994 11 77
1961 SP EA 12:00:00 TS -17.64 157.10 785 742 O_____P__OP_O_ jtwc_sh SH231961 -17.60 157.10 -1 -17.66 157.10 994 -17.60 157.10 TC -17.56 157.08 1 -17.70 157.10 TC 40 994 11 77
1961 SP EA 15:00:00 TS -17.51 157.64 742 691 P_____P__PP_P_ SH231961 -17.49 157.61 -1 -17.54 157.69 994 -17.49 157.61 TC -17.45 157.61 1 -17.55 157.64 TC 40 994 11 77
1961 SP EA 18:00:00 TS -17.40 158.18 691 651 O_____P__OP_O_ jtwc_sh SH231961 -17.40 158.10 -1 -17.42 158.29 994 -17.40 158.10 TC -17.35 158.12 1 -17.40 158.20 TC 40 994 11 78
1961 SP EA 21:00:00 TS -17.29 158.72 651 621 P_____P__PP_P_ SH231961 -17.30 158.61 -1 -17.29 158.85 994 -17.30 158.61 TC -17.26 158.60 1 -17.30 158.83 TC 40 994 10 77
1961 SP EA 23:00:00 TS -17.21 159.06 994 bom 621 612 P_____O__PO_P_ SH231961 -17.23 158.94 -1 -17.20 159.20 994 -17.23 158.94 TC -17.20 158.90 1 -17.24 159.23 TC 40 994 10 77
1961 SP EA 1961-03-06 00:00:00 TS -17.17 159.22 612 577 O_____P__OP_O_ jtwc_sh SH231961 -17.20 159.10 -1 -17.17 159.38 -17.20 159.10 TC -17.17 159.06 1 -17.20 159.40 TC 40 994 9 76
1961 SP EA 03:00:00 TS -17.06 159.67 577 559 P_____P__PP_P_ SH231961 -17.11 159.52 -1 -17.08 159.89 -17.11 159.52 TC -17.08 159.51 1 -17.06 159.78 TC 40 994 8 73
1961 SP MM 06:00:00 TS -16.93 160.06 559 544 O_____P__OP_O_ jtwc_sh SH231961 -17.00 159.90 -1 -16.98 160.35 -17.00 159.90 TC -16.98 159.93 1 -16.90 160.10 TC 40 994 8 69
1961 SP MM 09:00:00 TS -16.78 160.44 544 537 P_____P__PP_P_ SH231961 -16.84 160.26 -1 -16.86 160.75 -16.84 160.26 TC -16.83 160.30 1 -16.76 160.51 TC 40 994 8 63
1961 SP MM 11:00:00 TS -16.64 160.67 539 532 P_____P__PO_P_ SH231961 -16.69 160.49 -1 -16.74 160.97 -16.69 160.49 TC -16.70 160.50 1 -16.66 160.78 TC 40 994 8 57
1961 SP MM 12:00:00 TS -16.57 160.77 532 532 O_____P__OP_O_ jtwc_sh SH231961 -16.60 160.60 -1 -16.67 161.06 -16.60 160.60 TC -16.62 160.61 1 -16.60 160.90 TC 40 994 8 48
1961 SP MM 15:00:00 TS -16.30 161.07 539 539 P_____P__PP_P_ SH231961 -16.27 160.96 -1 -16.41 161.26 -16.27 160.96 TC -16.33 160.90 1 -16.44 161.26 TC 40 994 8 44
1961 SP MM 16:00:00 TS -16.19 161.15 994 bom 542 542 P_____O__PP_P_ SH231961 -16.14 161.06 -1 -16.30 161.30 994 -16.14 161.06 TC -16.22 160.98 1 -16.38 161.36 TC 40 994 8 30
1961 SP MM 18:00:00 TS -15.97 161.27 555 540 O_____P__OP_O_ jtwc_sh SH231961 -15.90 161.20 -1 -16.04 161.37 994 -15.90 161.20 TC -15.99 161.10 1 -16.20 161.50 TC 40 994 7 15
1961 SP MM 21:00:00 TS -15.62 161.32 540 517 P_____P__PP_P_ SH231961 -15.60 161.22 -1 -15.60 161.37 994 -15.60 161.22 TC -15.64 161.20 1 -15.78 161.61 TC 40 994 7 0
1961 SP MM 23:00:00 TS -15.38 161.27 994 bom 517 506 P_____O__PO_P_ SH231961 -15.40 161.15 -1 -15.30 161.30 994 -15.40 161.15 TC -15.40 161.20 1 -15.46 161.56 TC 40 994 8 345
1961 SP MM 1961-03-07 00:00:00 TS -15.26 161.22 508 467 O_____P__OP_O_ jtwc_sh SH231961 -15.30 161.10 -1 -15.16 161.22 -15.30 161.10 TC -15.30 161.18 1 -15.30 161.50 TC 40 994 9 329
1961 SP MM 03:00:00 TS -14.90 160.96 467 434 P_____P__PP_P_ SH231961 -14.95 160.94 -1 -14.76 160.87 -14.95 160.94 TC -14.99 161.01 1 -14.89 161.15 TC 40 994 9 321
1961 SP MM 06:00:00 TS -14.53 160.61 434 414 O_____P__OP_O_ jtwc_sh SH231961 -14.60 160.70 -1 -14.36 160.38 -14.60 160.70 TC -14.68 160.74 1 -14.50 160.70 TC 40 994 10 315
1961 SP MM 09:00:00 TS -14.19 160.24 418 403 P_____P__PP_P_ SH231961 -14.32 160.42 -1 -13.98 159.87 -14.32 160.42 TC -14.35 160.42 1 -14.15 160.35 TC 40 994 10 314
1961 SP EA 11:00:00 TS -13.96 159.99 408 394 P_____P__PO_P_ SH231961 -14.11 160.21 -1 -13.73 159.55 -14.11 160.21 TC -14.10 160.20 1 -13.92 160.12 TC 40 994 10 315
1961 SP EA 12:00:00 TS -13.84 159.87 394 381 O_____P__OP_O_ jtwc_sh SH231961 -14.00 160.10 -1 -13.60 159.41 -14.00 160.10 TC -13.97 160.09 1 -13.80 160.00 TC 40 995 11 319
1961 SP EA 15:00:00 TS -13.42 159.51 381 368 P_____P__PP_P_ SH231961 -13.58 159.79 -1 -13.24 159.09 -13.58 159.79 TC -13.55 159.78 1 -13.40 159.52 TC 37 995 11 322
1961 SP EA 17:00:00 TS -13.13 159.31 996 bom 368 364 P_____O__PP_P_ SH231961 -13.26 159.60 -1 -13.00 159.00 996 -13.26 159.60 TC -13.25 159.58 1 -13.13 159.27 TC 35 995 11 327
1961 SP EA 18:00:00 TS -12.97 159.22 364 320 O_____P__OP_O_ jtwc_sh SH231961 -13.10 159.50 -1 -12.86 159.02 996 -13.10 159.50 TC -13.10 159.48 1 -13.00 159.20 TC 35 996 9 349
1961 SP EA 21:00:00 TS -12.56 159.20 320 285 ______P___P_P_ SH231961 -1 -12.47 159.16 996 TC -12.62 159.19 1 -12.58 159.25 TC 35 996 8 8
1961 SP EA 23:00:00 TS -12.34 159.32 996 bom 285 283 ______O___O_P_ SH231961 -1 -12.30 159.30 996 TC -12.30 159.00 2 -12.37 159.41 TC 35 996 7 40
1961 SP EA 1961-03-08 00:00:00 TS -12.28 159.44 283 265 ______P_____O_ -1 -12.25 159.38 996 2 -12.30 159.50 TC 35 996 6 76
1961 SP EA 03:00:00 TS -12.25 159.71 265 258 ______P_____P_ -1 -12.23 159.65 996 2 -12.27 159.76 TC 35 996 5 102
1961 SP EA 06:00:00 TS -12.38 159.95 266 259 ______P_____O_ -1 -12.36 159.90 996 2 -12.40 160.00 TC 35 996 5 128
1961 SP MM 08:00:00 TS -12.50 160.04 997 bom 268 261 ______O_____P_ -1 -12.50 160.00 997 2 -12.50 160.08 TC 35 996 4 150
1961 SP MM 09:00:00 TS -12.57 160.06 271 271 ______P_____P_ -1 -12.58 160.02 997 2 -12.57 160.10 TC 35 996 5 0
1961 SP MM 12:00:00 TS -12.81 160.05 295 295 ______P_____O_ -1 -12.83 159.98 997 -12.80 160.10 TC 35 997 5 194
1961 SP EA 15:00:00 TS -13.07 159.94 329 329 ______P_____P_ -1 -13.11 159.83 998 -13.05 160.02 TC 32 998 6 203
1961 SP EA 17:00:00 TS -13.24 159.86 999 bom 339 348 ______O_____P_ -1 -13.30 159.70 999 -13.22 159.94 TC 30 998 5 189
1961 SP EA 18:00:00 TS -13.30 159.90 348 ____________O_ -1 -13.30 159.90 TC 30 999 4 145